Time;durP1;ratioP1;P1;durP2;ratioP2;P2;SDS_P1;SDS_P2;PMS_P1;PMS_P2;Temp;Humidity;BMP_temperature;BMP_pressure;BME280_temperature;BME280_humidity;BME280_pressure;Samples;Min_cycle;Max_cycle;Signal;HPM_P1;HPM_P2
2022/01/08 00:01:20;;;;;;;3.80;2.10;;;;;;;6.17;94.36;99569.09;5009099;28;20077;-66
2022/01/08 00:03:46;;;;;;;6.93;1.83;;;;;;;6.17;94.74;99579.66;5007963;28;20500;-67
2022/01/08 00:06:12;;;;;;;4.00;1.67;;;;;;;6.29;94.57;99577.59;5008834;28;20050;-65
2022/01/08 00:08:38;;;;;;;4.93;1.63;;;;;;;6.30;93.99;99566.13;5007206;28;20021;-67
2022/01/08 00:11:06;;;;;;;5.25;2.08;;;;;;;6.33;93.15;99563.44;5009152;28;20029;-65
2022/01/08 00:13:32;;;;;;;5.20;2.15;;;;;;;6.44;92.71;99549.97;5009057;28;20029;-65
2022/01/08 00:15:57;;;;;;;6.32;2.45;;;;;;;6.41;91.76;99539.47;5009320;28;20029;-66
2022/01/08 00:18:23;;;;;;;3.83;1.90;;;;;;;6.47;92.15;99547.25;4997121;28;20117;-66
2022/01/08 00:20:49;;;;;;;4.47;2.25;;;;;;;6.43;92.06;99532.38;4989449;28;20061;-65
2022/01/08 00:23:14;;;;;;;4.47;2.10;;;;;;;6.45;91.71;99528.81;4971726;28;20038;-65
2022/01/08 00:25:40;;;;;;;3.88;2.00;;;;;;;6.48;92.03;99512.00;4992189;28;20050;-66
2022/01/08 00:28:06;;;;;;;5.57;1.92;;;;;;;6.45;91.89;99512.97;5008843;28;20042;-66
2022/01/08 00:30:31;;;;;;;3.13;1.58;;;;;;;6.47;92.29;99505.00;5009083;28;20037;-65
2022/01/08 00:32:59;;;;;;;2.80;2.00;;;;;;;6.45;91.01;99506.78;5007278;28;20105;-65
2022/01/08 00:35:25;;;;;;;3.72;2.00;;;;;;;6.54;90.52;99506.56;5012948;28;20030;-65
2022/01/08 00:37:51;;;;;;;2.83;2.08;;;;;;;6.54;89.66;99501.28;5012320;28;20034;-66
2022/01/08 00:40:16;;;;;;;2.15;1.50;;;;;;;6.64;89.69;99492.22;4995254;28;20359;-65
2022/01/08 00:42:42;;;;;;;3.08;1.83;;;;;;;6.67;89.41;99489.53;5000556;28;20121;-65
2022/01/08 00:45:07;;;;;;;4.18;1.80;;;;;;;6.70;89.23;99482.34;4993529;28;20057;-66
2022/01/08 00:47:33;;;;;;;3.92;1.70;;;;;;;6.76;89.38;99485.75;4993114;28;20054;-65
2022/01/08 00:49:59;;;;;;;6.38;1.92;;;;;;;6.72;89.30;99472.63;4995328;28;20026;-66
2022/01/08 00:52:25;;;;;;;1.77;1.30;;;;;;;6.74;89.95;99467.28;4993818;28;20030;-65
2022/01/08 00:54:50;;;;;;;3.75;1.85;;;;;;;6.68;90.31;99457.78;4993177;28;20105;-66
2022/01/08 00:57:16;;;;;;;5.20;1.80;;;;;;;6.75;91.27;99457.59;5007536;28;20041;-66
2022/01/08 00:59:41;;;;;;;2.88;1.58;;;;;;;6.57;92.14;99458.94;4998335;28;20038;-66
2022/01/08 01:02:07;;;;;;;4.57;1.80;;;;;;;6.58;92.94;99461.56;4993206;28;20490;-66
2022/01/08 01:04:32;;;;;;;5.25;1.45;;;;;;;6.55;94.15;99450.19;5008862;28;20033;-66
2022/01/08 01:06:58;;;;;;;2.60;1.65;;;;;;;6.55;94.22;99444.91;5011930;28;20061;-67
2022/01/08 01:09:23;;;;;;;3.20;1.80;;;;;;;6.56;94.90;99436.06;4994829;28;20034;-66
2022/01/08 01:11:51;;;;;;;5.13;1.70;;;;;;;6.51;95.14;99443.25;5012825;28;20034;-66
2022/01/08 01:14:16;;;;;;;2.97;1.38;;;;;;;6.54;95.85;99427.31;5012265;28;20026;-65
2022/01/08 01:16:42;;;;;;;4.20;2.10;;;;;;;6.49;96.37;99421.31;5012382;28;20099;-65
2022/01/08 01:19:07;;;;;;;3.67;1.58;;;;;;;6.53;97.22;99422.94;4994284;28;20442;-65
2022/01/08 01:21:32;;;;;;;2.30;1.20;;;;;;;6.37;97.71;99411.03;4993007;28;20026;-65
2022/01/08 01:24:00;;;;;;;3.35;1.63;;;;;;;6.41;97.86;99425.88;4992275;28;20574;-66
2022/01/08 01:26:28;;;;;;;5.47;1.42;;;;;;;6.48;97.79;99416.91;5001731;28;20448;-65
2022/01/08 01:47:10;;;;;;;7.45;1.52;;;;;;;6.16;100.00;99401.03;5011399;28;20474;-66
2022/01/08 01:49:38;;;;;;;2.38;1.42;;;;;;;6.11;100.00;99379.16;5012095;28;20033;-66
2022/01/08 01:52:06;;;;;;;2.85;1.90;;;;;;;6.18;100.00;99389.50;5011570;28;20061;-66
2022/01/08 01:54:34;;;;;;;1.15;1.00;;;;;;;6.17;100.00;99395.69;5011624;28;20030;-66
2022/01/08 01:57:01;;;;;;;2.00;1.27;;;;;;;6.15;100.00;99389.59;5011056;28;20393;-66
2022/01/08 01:59:28;;;;;;;3.15;1.38;;;;;;;6.15;100.00;99396.63;5010987;28;20516;-66
2022/01/08 02:01:53;;;;;;;1.80;1.52;;;;;;;6.05;100.00;99396.00;5011494;28;20022;-66
2022/01/08 02:04:19;;;;;;;2.05;1.33;;;;;;;5.87;100.00;99382.34;5011069;28;20079;-66
2022/01/08 02:06:45;;;;;;;1.95;1.20;;;;;;;5.86;100.00;99378.88;5011162;28;20085;-66
2022/01/08 02:09:10;;;;;;;2.75;1.70;;;;;;;5.88;100.00;99392.88;4993822;28;20061;-66
2022/01/08 02:11:55;;;;;;;5.30;1.63;;;;;;;5.80;100.00;99384.25;5011792;28;20026;-66
2022/01/08 02:14:21;;;;;;;2.05;1.75;;;;;;;5.74;100.00;99372.97;5010685;28;20013;-66
2022/01/08 02:16:47;;;;;;;1.33;1.23;;;;;;;5.67;100.00;99384.59;5011142;28;20385;-66
2022/01/08 02:19:12;;;;;;;1.83;1.50;;;;;;;5.66;100.00;99380.19;5010674;28;20030;-67
2022/01/08 02:21:38;;;;;;;1.40;1.30;;;;;;;5.61;100.00;99371.53;5011008;28;20034;-67
2022/01/08 02:24:03;;;;;;;2.40;1.45;;;;;;;5.55;100.00;99361.13;5011677;28;20057;-66
2022/01/08 02:26:29;;;;;;;2.80;1.50;;;;;;;5.50;100.00;99355.09;5011195;28;20092;-66
2022/01/08 02:28:54;;;;;;;3.30;1.50;;;;;;;5.52;100.00;99358.56;5010697;28;20470;-66
2022/01/08 02:31:23;;;;;;;1.92;1.30;;;;;;;5.42;100.00;99343.84;5010733;28;20406;-66
2022/01/08 02:33:50;;;;;;;4.45;1.73;;;;;;;5.46;100.00;99348.13;4992962;28;20061;-66
2022/01/08 02:36:16;;;;;;;3.92;1.63;;;;;;;5.42;100.00;99349.97;4992639;28;20528;-67
2022/01/08 02:38:42;;;;;;;3.15;1.50;;;;;;;5.37;100.00;99341.28;5010409;28;20105;-66
2022/01/08 02:41:07;;;;;;;3.80;1.63;;;;;;;5.38;100.00;99338.66;4992578;28;20022;-66
2022/01/08 02:43:40;;;;;;;3.50;1.48;;;;;;;5.35;100.00;99336.06;5011180;28;20025;-66
2022/01/08 02:46:05;;;;;;;3.22;1.92;;;;;;;5.36;100.00;99340.44;5010815;28;20033;-66
2022/01/08 02:48:31;;;;;;;3.85;1.90;;;;;;;5.32;100.00;99349.31;5010321;28;20045;-66
2022/01/08 02:50:56;;;;;;;3.42;2.20;;;;;;;5.35;100.00;99349.25;4996644;28;20034;-66
2022/01/08 02:53:22;;;;;;;2.42;1.90;;;;;;;5.36;100.00;99350.13;4995478;28;20022;-66
2022/01/08 02:55:48;;;;;;;2.60;1.50;;;;;;;5.32;100.00;99343.19;5009483;28;20025;-66
2022/01/08 02:58:14;;;;;;;3.22;2.00;;;;;;;5.37;100.00;99352.72;4996830;28;20486;-66
2022/01/08 03:00:39;;;;;;;1.38;1.27;;;;;;;5.40;100.00;99355.28;5000935;28;20041;-66
2022/01/08 03:03:05;;;;;;;3.55;1.80;;;;;;;5.46;100.00;99350.75;5010410;28;20477;-66
2022/01/08 03:05:30;;;;;;;3.15;1.50;;;;;;;5.43;100.00;99359.63;4993164;28;20034;-66
2022/01/08 03:07:56;;;;;;;1.80;1.35;;;;;;;5.44;100.00;99357.88;5006185;28;20100;-66
2022/01/08 03:10:21;;;;;;;2.20;1.52;;;;;;;5.35;100.00;99346.59;5010393;28;20029;-66
2022/01/08 03:12:46;;;;;;;2.17;1.48;;;;;;;5.45;100.00;99362.22;5010161;28;20041;-66
2022/01/08 03:15:15;;;;;;;2.17;1.33;;;;;;;5.53;100.00;99362.91;5009466;28;20032;-66
2022/01/08 03:17:42;;;;;;;2.25;1.60;;;;;;;5.50;100.00;99358.59;5004528;28;20518;-66
2022/01/08 03:20:12;;;;;;;3.85;1.60;;;;;;;5.52;100.00;99366.47;4990535;28;20482;-66
2022/01/08 03:22:39;;;;;;;1.52;1.20;;;;;;;5.45;100.00;99375.41;4990244;28;20108;-66
2022/01/08 03:25:06;;;;;;;2.45;1.20;;;;;;;5.38;100.00;99364.13;4990712;28;20026;-66
2022/01/08 03:27:32;;;;;;;2.60;1.58;;;;;;;5.34;100.00;99373.88;5008028;28;20068;-66
2022/01/08 03:29:58;;;;;;;5.22;1.83;;;;;;;5.42;100.00;99378.13;5009636;28;20026;-66
2022/01/08 03:32:24;;;;;;;2.25;1.50;;;;;;;5.43;100.00;99367.53;5003520;28;20018;-66
2022/01/08 03:34:50;;;;;;;3.50;1.40;;;;;;;5.33;100.00;99372.16;4990434;28;20114;-66
2022/01/08 03:37:16;;;;;;;1.73;1.23;;;;;;;5.39;100.00;99373.78;4998326;28;20505;-66
2022/01/08 03:39:42;;;;;;;3.22;1.15;;;;;;;5.39;100.00;99386.97;5009657;28;20058;-65
2022/01/08 03:42:08;;;;;;;1.73;1.40;;;;;;;5.41;100.00;99385.16;5010163;28;20650;-65
2022/01/08 03:44:33;;;;;;;2.83;1.42;;;;;;;5.34;100.00;99387.06;5008117;28;20038;-65
2022/01/08 03:47:22;;;;;;;3.13;1.20;;;;;;;5.34;100.00;99404.63;5009083;28;20029;-65
2022/01/08 03:49:45;;;;;;;1.98;1.20;;;;;;;5.25;100.00;99397.78;5008240;28;20120;-65
2022/01/08 03:52:12;;;;;;;2.63;1.30;;;;;;;5.42;100.00;99409.78;5009446;28;20137;-65
2022/01/08 03:54:38;;;;;;;1.40;1.30;;;;;;;5.46;100.00;99414.06;5007358;28;20026;-65
2022/01/08 03:57:03;;;;;;;3.03;1.23;;;;;;;5.37;100.00;99412.47;5008363;28;20509;-65
2022/01/08 03:59:29;;;;;;;2.42;1.40;;;;;;;5.46;100.00;99429.88;5009317;28;20532;-65
2022/01/08 04:01:54;;;;;;;2.65;1.52;;;;;;;5.40;100.00;99437.03;5009111;28;20041;-65
2022/01/08 04:04:20;;;;;;;1.90;1.10;;;;;;;5.40;100.00;99437.03;5009549;28;20029;-65
2022/01/08 04:06:45;;;;;;;2.63;1.30;;;;;;;5.40;100.00;99431.75;5009137;28;20054;-65
2022/01/08 04:09:11;;;;;;;1.30;1.20;;;;;;;5.44;100.00;99448.38;5009040;28;20474;-65
2022/01/08 04:11:36;;;;;;;6.90;1.50;;;;;;;5.46;100.00;99446.59;5008193;28;20022;-65
2022/01/08 04:14:20;;;;;;;1.45;1.13;;;;;;;5.44;100.00;99455.44;5009025;28;20041;-65
2022/01/08 04:16:49;;;;;;;2.10;1.20;;;;;;;5.51;100.00;99459.66;5009093;28;20119;-65
2022/01/08 04:19:16;;;;;;;1.25;1.05;;;;;;;5.50;100.00;99455.31;4990714;28;20053;-65
2022/01/08 04:21:59;;;;;;;2.58;1.02;;;;;;;5.57;100.00;99475.38;4989707;28;20474;-65
2022/01/08 04:24:26;;;;;;;4.13;1.35;;;;;;;5.58;100.00;99482.38;4989671;28;20148;-65
2022/01/08 04:26:52;;;;;;;1.35;1.17;;;;;;;5.63;100.00;99485.78;5001363;28;20061;-65
2022/01/08 04:29:17;;;;;;;2.28;1.35;;;;;;;5.60;100.00;99496.41;5009059;28;20505;-65
2022/01/08 04:31:43;;;;;;;2.00;1.50;;;;;;;5.60;100.00;99507.81;5007304;28;20030;-65
2022/01/08 04:34:08;;;;;;;2.42;1.40;;;;;;;5.61;100.00;99520.13;4989005;28;20457;-65
2022/01/08 04:36:34;;;;;;;2.17;1.42;;;;;;;5.62;100.00;99527.13;4989316;28;20328;-65
2022/01/08 04:38:59;;;;;;;3.20;1.23;;;;;;;5.59;100.00;99534.22;4988144;28;20030;-65
2022/01/08 04:41:25;;;;;;;3.58;1.75;;;;;;;5.53;100.00;99558.09;4988171;28;20109;-65
2022/01/08 04:43:50;;;;;;;1.58;1.30;;;;;;;5.54;100.00;99571.25;4989049;28;20023;-65
2022/01/08 04:46:15;;;;;;;1.77;1.27;;;;;;;5.55;100.00;99580.03;4989061;28;20046;-65
2022/01/08 04:48:41;;;;;;;2.22;1.40;;;;;;;5.54;100.00;99591.47;5000712;28;20025;-65
2022/01/08 04:51:07;;;;;;;1.30;1.20;;;;;;;5.42;100.00;99604.91;5008311;28;20065;-64
2022/01/08 04:53:32;;;;;;;1.30;1.10;;;;;;;5.34;100.00;99626.13;4996199;28;20072;-64
2022/01/08 04:55:58;;;;;;;1.50;1.35;;;;;;;5.30;100.00;99635.84;5007635;28;20547;-64
2022/01/08 04:58:23;;;;;;;4.05;1.40;;;;;;;5.32;100.00;99643.78;4995849;28;20068;-64
2022/01/08 05:00:49;;;;;;;1.50;1.40;;;;;;;5.29;100.00;99655.22;4991213;28;20382;-64
2022/01/08 05:03:14;;;;;;;4.95;1.60;;;;;;;5.32;100.00;99670.16;4971799;28;20037;-64
2022/01/08 05:05:40;;;;;;;5.25;1.75;;;;;;;5.31;100.00;99684.19;4988446;28;20033;-64
2022/01/08 05:08:05;;;;;;;1.75;1.30;;;;;;;5.33;100.00;99688.56;4989325;28;20535;-64
2022/01/08 05:10:33;;;;;;;2.72;1.40;;;;;;;5.30;100.00;99709.69;4988666;28;20019;-64
2022/01/08 05:13:04;;;;;;;20.45;2.25;;;;;;;5.26;100.00;99712.41;4989007;28;20034;-64
2022/01/08 05:15:33;;;;;;;5.95;1.98;;;;;;;5.18;100.00;99715.19;4988927;28;20391;-64
2022/01/08 05:17:58;;;;;;;4.93;1.50;;;;;;;5.22;100.00;99730.03;4996243;28;20390;-64
2022/01/08 05:20:28;;;;;;;2.15;1.27;;;;;;;5.25;100.00;99739.69;5010493;28;20036;-64
2022/01/08 05:22:59;;;;;;;1.45;1.15;;;;;;;5.25;100.00;99747.59;5012261;28;20394;-64
2022/01/08 05:25:26;;;;;;;1.10;1.00;;;;;;;5.25;100.00;99755.50;5012371;28;20389;-64
2022/01/08 05:27:51;;;;;;;3.05;1.00;;;;;;;5.23;100.00;99759.94;5011822;28;20088;-64
2022/01/08 05:30:19;;;;;;;1.63;1.52;;;;;;;5.18;100.00;99773.19;5012325;28;20425;-64
2022/01/08 05:32:45;;;;;;;1.35;1.20;;;;;;;5.21;100.00;99773.13;5002506;28;20052;-64
2022/01/08 05:35:11;;;;;;;1.10;1.00;;;;;;;5.21;100.00;99788.06;4992306;28;20053;-64
2022/01/08 05:37:36;;;;;;;1.42;1.17;;;;;;;5.21;100.00;99799.50;4992188;28;20073;-64
2022/01/08 05:40:02;;;;;;;2.05;1.00;;;;;;;5.21;100.00;99802.13;4992333;28;20030;-64
2022/01/08 05:42:28;;;;;;;1.35;1.00;;;;;;;5.17;100.00;99808.31;5006897;28;20045;-64
2022/01/08 05:44:53;;;;;;;2.00;1.00;;;;;;;5.17;100.00;99824.16;5011834;28;20093;-64
2022/01/08 05:47:21;;;;;;;3.15;1.15;;;;;;;5.14;100.00;99828.63;5011032;28;20072;-64
2022/01/08 05:49:46;;;;;;;1.10;1.00;;;;;;;5.10;100.00;99838.31;5012100;28;20101;-64
2022/01/08 05:52:12;;;;;;;1.20;1.10;;;;;;;5.13;100.00;99832.13;5011663;28;20116;-63
2022/01/08 05:54:37;;;;;;;2.13;1.10;;;;;;;5.15;100.00;99857.59;5011631;28;20459;-63
2022/01/08 05:57:03;;;;;;;1.13;1.00;;;;;;;5.12;100.00;99857.59;5011545;28;20026;-63
2022/01/08 05:59:28;;;;;;;4.00;1.27;;;;;;;4.97;100.00;99854.31;5011474;28;20038;-64
2022/01/08 06:01:55;;;;;;;2.65;1.42;;;;;;;5.01;100.00;99870.06;5011371;28;20025;-64
2022/01/08 06:04:21;;;;;;;1.20;1.10;;;;;;;4.98;100.00;99879.75;5010872;28;20546;-64
2022/01/08 06:06:46;;;;;;;1.83;1.33;;;;;;;4.74;100.00;99840.56;5011040;28;20073;-64
2022/01/08 06:09:12;;;;;;;4.40;1.58;;;;;;;4.85;100.00;99894.88;5011175;28;20030;-64
2022/01/08 06:11:37;;;;;;;5.88;1.75;;;;;;;4.83;100.00;99890.50;5011450;28;20387;-64
2022/01/08 06:14:03;;;;;;;6.47;2.25;;;;;;;4.78;100.00;99903.72;5011604;28;20415;-64
2022/01/08 06:16:36;;;;;;;3.15;1.40;;;;;;;4.71;100.00;99915.22;5011156;28;20429;-64
2022/01/08 06:19:13;;;;;;;1.58;1.38;;;;;;;4.54;100.00;99913.66;4994339;28;20454;-62
2022/01/08 06:21:39;;;;;;;2.42;1.70;;;;;;;4.52;100.00;99931.22;4991916;28;20510;-64
2022/01/08 06:24:05;;;;;;;2.75;1.45;;;;;;;4.47;100.00;99938.28;4991991;28;20026;-64
2022/01/08 06:26:31;;;;;;;4.90;2.05;;;;;;;4.39;100.00;99941.00;5000982;28;20085;-64
2022/01/08 06:28:57;;;;;;;2.30;1.70;;;;;;;4.42;100.00;99954.16;5010486;28;20029;-64
2022/01/08 06:31:23;;;;;;;3.15;2.00;;;;;;;4.40;100.00;99960.31;5010588;28;20042;-64
2022/01/08 06:33:50;;;;;;;5.05;2.30;;;;;;;4.43;100.00;99968.19;5011123;28;20061;-65
2022/01/08 06:36:19;;;;;;;4.40;2.20;;;;;;;4.46;100.00;99974.31;5010604;28;20072;-64
2022/01/08 06:38:46;;;;;;;3.03;1.73;;;;;;;4.44;100.00;99975.19;5010237;28;20066;-64
2022/01/08 06:41:11;;;;;;;2.53;1.70;;;;;;;4.46;100.00;99979.56;5010878;28;20109;-64
2022/01/08 06:43:37;;;;;;;4.88;2.13;;;;;;;4.49;100.00;99979.53;5011065;28;20133;-64
2022/01/08 06:46:02;;;;;;;4.10;2.00;;;;;;;4.54;100.00;99993.53;5011152;28;20037;-64
2022/01/08 06:48:28;;;;;;;3.38;1.88;;;;;;;4.57;100.00;99993.50;5007309;28;20108;-64
2022/01/08 06:50:53;;;;;;;3.75;2.03;;;;;;;4.63;100.00;99995.22;5010769;28;20030;-64
2022/01/08 06:53:19;;;;;;;3.28;1.90;;;;;;;4.55;100.00;100003.19;5007334;28;20029;-64
2022/01/08 06:55:44;;;;;;;4.93;2.55;;;;;;;4.56;100.00;100006.69;5009789;28;20528;-64
2022/01/08 06:58:09;;;;;;;8.40;2.60;;;;;;;4.61;100.00;100008.38;5006425;28;20044;-64
2022/01/08 07:00:35;;;;;;;2.97;2.30;;;;;;;4.64;100.00;100012.75;5009829;28;20438;-64
2022/01/08 07:03:01;;;;;;;20.17;4.20;;;;;;;4.63;100.00;100014.50;4992974;28;20098;-64
2022/01/08 07:05:26;;;;;;;52.47;8.55;;;;;;;4.72;100.00;100014.44;4990903;28;20026;-64
2022/01/08 07:07:52;;;;;;;3.58;1.90;;;;;;;4.67;100.00;100016.25;4989902;28;20045;-64
2022/01/08 07:10:17;;;;;;;3.55;2.20;;;;;;;4.60;100.00;100014.56;4990790;28;20030;-64
2022/01/08 07:12:43;;;;;;;3.25;2.10;;;;;;;4.65;100.00;100039.09;4990492;28;20041;-64
2022/01/08 07:15:09;;;;;;;6.63;2.60;;;;;;;4.59;99.17;100044.41;4990420;28;20156;-64
2022/01/08 07:17:34;;;;;;;4.78;2.38;;;;;;;4.61;99.52;100044.41;4995147;28;20511;-64
2022/01/08 07:20:00;;;;;;;2.90;1.75;;;;;;;4.57;98.62;100054.09;5009773;28;20076;-64
2022/01/08 07:22:25;;;;;;;5.03;2.28;;;;;;;4.59;99.18;100059.34;5010160;28;20033;-64
2022/01/08 07:24:50;;;;;;;2.05;1.63;;;;;;;4.57;99.61;100083.06;5010135;28;20021;-64
2022/01/08 07:27:16;;;;;;;2.67;1.67;;;;;;;4.49;100.00;100071.72;5009499;28;20095;-64
2022/01/08 07:29:41;;;;;;;2.80;2.28;;;;;;;4.44;100.00;100086.66;5009796;28;20034;-64
2022/01/08 07:32:07;;;;;;;4.60;2.67;;;;;;;4.50;100.00;100106.84;5005866;28;20026;-64
2022/01/08 07:34:32;;;;;;;14.30;6.15;;;;;;;4.44;100.00;100109.50;4973283;28;20030;-64
2022/01/08 07:36:58;;;;;;;5.65;2.10;;;;;;;4.41;100.00;100110.41;4990830;28;20030;-65
2022/01/08 07:39:23;;;;;;;4.53;3.00;;;;;;;4.48;100.00;100119.13;5009840;28;20029;-64
2022/01/08 07:41:49;;;;;;;6.07;3.00;;;;;;;4.44;100.00;100120.03;5009735;28;20105;-64
2022/01/08 07:44:14;;;;;;;6.80;2.78;;;;;;;4.41;100.00;100123.56;5009067;28;20164;-64
2022/01/08 07:46:40;;;;;;;5.82;3.40;;;;;;;4.41;100.00;100131.47;5009877;28;20025;-64
2022/01/08 07:49:11;;;;;;;14.45;7.05;;;;;;;4.44;100.00;100131.44;5009285;28;20032;-63
2022/01/08 07:51:39;;;;;;;5.43;3.15;;;;;;;4.43;100.00;100121.78;5008947;28;20036;-64
2022/01/08 07:54:37;;;;;;;9.15;2.45;;;;;;;4.51;100.00;100135.78;4991917;28;20030;-64
2022/01/08 07:57:02;;;;;;;5.55;2.30;;;;;;;4.54;100.00;100135.75;5009021;28;20028;-64
2022/01/08 07:59:28;;;;;;;4.00;2.17;;;;;;;4.55;100.00;100126.97;5009743;28;20482;-64
2022/01/08 08:01:53;;;;;;;4.63;2.38;;;;;;;4.59;100.00;100131.34;5009730;28;20105;-64
2022/01/08 08:04:19;;;;;;;5.60;2.22;;;;;;;4.67;100.00;100126.88;5009072;28;20080;-64
2022/01/08 08:06:47;;;;;;;4.68;3.10;;;;;;;4.73;99.71;100132.09;5009394;28;20054;-63
2022/01/08 08:09:13;;;;;;;4.35;2.92;;;;;;;4.75;99.99;100138.25;5009570;28;20060;-63
2022/01/08 08:11:39;;;;;;;6.88;2.90;;;;;;;4.75;99.79;100135.59;5007629;28;20059;-63
2022/01/08 08:14:04;;;;;;;10.75;3.70;;;;;;;4.86;99.70;100149.56;5007508;28;20044;-63
2022/01/08 08:16:29;;;;;;;5.70;2.97;;;;;;;4.90;99.59;100153.94;5009115;28;20034;-63
2022/01/08 08:18:55;;;;;;;4.82;3.03;;;;;;;4.99;99.52;100148.59;4992735;28;20026;-63
2022/01/08 08:21:20;;;;;;;7.60;3.28;;;;;;;5.07;98.96;100148.53;4989857;28;20018;-63
2022/01/08 08:23:46;;;;;;;6.50;3.47;;;;;;;5.03;98.48;100158.22;4988913;28;20493;-63
2022/01/08 08:26:11;;;;;;;7.38;3.50;;;;;;;5.01;97.73;100148.56;4995434;28;20540;-63
2022/01/08 08:28:37;;;;;;;9.02;4.20;;;;;;;4.99;96.74;100151.22;5008956;28;20095;-63
2022/01/08 08:31:02;;;;;;;5.88;2.97;;;;;;;5.04;95.84;100152.06;5009248;28;20510;-63
2022/01/08 08:33:28;;;;;;;4.88;2.65;;;;;;;5.01;95.46;100160.00;4993809;28;20026;-63
2022/01/08 08:35:53;;;;;;;6.15;3.03;;;;;;;5.06;95.47;100150.28;4971382;28;20112;-63
2022/01/08 08:38:19;;;;;;;5.10;1.83;;;;;;;5.06;95.40;100150.28;4989057;28;20030;-63
2022/01/08 08:40:44;;;;;;;5.65;2.75;;;;;;;5.02;94.65;100145.94;4989119;28;20482;-63
2022/01/08 08:43:09;;;;;;;6.68;2.75;;;;;;;4.93;94.36;100146.00;4989416;28;20029;-63
2022/01/08 08:45:35;;;;;;;7.85;2.80;;;;;;;4.93;94.00;100151.28;4992090;28;20033;-63
2022/01/08 08:48:00;;;;;;;5.78;2.40;;;;;;;4.95;94.27;100154.78;4988704;28;20026;-63
2022/01/08 08:50:26;;;;;;;6.22;2.10;;;;;;;5.20;94.86;100156.34;4991632;28;20033;-63
2022/01/08 08:52:53;;;;;;;4.35;2.40;;;;;;;5.44;93.35;100159.63;5000539;28;20474;-63
2022/01/08 08:55:19;;;;;;;3.47;2.25;;;;;;;5.49;90.89;100169.22;4993790;28;20029;-64
2022/01/08 08:57:45;;;;;;;9.82;2.40;;;;;;;5.37;89.93;100164.06;5011499;28;20025;-64
2022/01/08 09:00:12;;;;;;;4.68;2.40;;;;;;;5.43;89.69;100179.84;5012881;28;20041;-64
2022/01/08 09:02:38;;;;;;;5.85;2.83;;;;;;;5.63;90.66;100180.53;5012628;28;20038;-64
2022/01/08 09:05:04;;;;;;;4.88;2.33;;;;;;;5.93;90.67;100171.44;5013070;28;20080;-64
2022/01/08 09:07:30;;;;;;;8.48;3.75;;;;;;;7.58;91.14;100158.34;5011771;28;20560;-64
2022/01/08 09:09:56;;;;;;;10.40;3.28;;;;;;;8.87;79.48;100157.41;5008303;28;20025;-64
2022/01/08 09:12:21;;;;;;;10.13;3.75;;;;;;;10.73;68.33;100152.28;4992785;28;20033;-64
2022/01/08 09:14:47;;;;;;;5.97;2.50;;;;;;;13.02;58.30;100153.81;4992865;28;20027;-64
2022/01/08 09:17:14;;;;;;;5.97;2.10;;;;;;;13.15;51.53;100160.41;4993689;28;20030;-64
2022/01/08 09:19:40;;;;;;;10.68;2.88;;;;;;;11.89;52.63;100173.28;5012181;28;20033;-64
2022/01/08 09:22:06;;;;;;;4.05;2.05;;;;;;;9.91;57.23;100181.28;5012308;28;20143;-64
2022/01/08 09:24:33;;;;;;;3.53;1.60;;;;;;;8.72;63.40;100186.03;5012425;28;20478;-64
2022/01/08 09:26:59;;;;;;;4.30;1.70;;;;;;;7.76;67.51;100167.72;5012318;28;20113;-65
2022/01/08 09:29:25;;;;;;;4.15;1.58;;;;;;;7.38;71.16;100171.06;5011878;28;20101;-65
2022/01/08 09:31:51;;;;;;;5.95;2.08;;;;;;;7.08;74.68;100179.53;5010743;28;20052;-65
2022/01/08 09:34:16;;;;;;;3.75;1.95;;;;;;;6.86;76.41;100177.22;4993334;28;20033;-64
2022/01/08 09:36:43;;;;;;;4.97;1.95;;;;;;;6.67;78.13;100168.69;4996186;28;20025;-64
2022/01/08 09:39:09;;;;;;;3.63;1.90;;;;;;;6.53;79.04;100174.19;5011640;28;20029;-64
2022/01/08 09:41:36;;;;;;;6.15;2.65;;;;;;;6.41;78.64;100170.81;5012037;28;20112;-64
2022/01/08 09:44:01;;;;;;;4.53;2.60;;;;;;;6.29;79.92;100171.00;5008606;28;20097;-64
2022/01/08 09:46:27;;;;;;;4.32;2.65;;;;;;;6.38;81.07;100165.56;5011707;28;20558;-64
2022/01/08 09:48:52;;;;;;;7.78;3.50;;;;;;;6.45;81.78;100177.81;5011403;28;20536;-65
2022/01/08 09:51:18;;;;;;;9.40;4.15;;;;;;;6.48;82.29;100178.66;5011592;28;20037;-65
2022/01/08 09:53:45;;;;;;;7.18;2.72;;;;;;;6.37;81.08;100175.28;5012147;28;20025;-65
2022/01/08 09:56:11;;;;;;;3.72;2.53;;;;;;;6.28;81.58;100175.38;5011674;28;20056;-65
2022/01/08 09:58:36;;;;;;;4.03;2.45;;;;;;;6.20;81.85;100165.81;5011728;28;20057;-65
2022/01/08 10:01:03;;;;;;;4.97;2.60;;;;;;;6.22;82.71;100154.34;5011124;28;20437;-65
2022/01/08 10:03:33;;;;;;;5.40;3.00;;;;;;;6.14;82.62;100150.06;5011965;28;20029;-65
2022/01/08 10:06:00;;;;;;;8.55;3.35;;;;;;;6.22;83.26;100154.34;5010612;28;20676;-65
2022/01/08 10:08:28;;;;;;;11.07;3.33;;;;;;;6.21;81.80;100157.00;5011592;28;20504;-65
2022/01/08 10:10:56;;;;;;;10.23;2.38;;;;;;;6.06;80.15;100142.22;5011703;28;20371;-65
2022/01/08 10:13:25;;;;;;;4.70;2.88;;;;;;;6.17;81.08;100145.63;5011438;28;20030;-65
2022/01/08 10:18:38;;;;;;;6.00;2.90;;;;;;;5.95;81.19;100132.69;4998092;28;20049;-64
2022/01/08 10:21:26;;;;;;;6.10;3.20;;;;;;;6.09;82.28;100150.13;4990966;28;20463;-64
2022/01/08 10:23:54;;;;;;;6.70;2.97;;;;;;;5.99;82.61;100139.69;4991200;28;20053;-64
2022/01/08 10:26:22;;;;;;;7.40;3.20;;;;;;;5.96;83.43;100145.00;5000003;28;20025;-64
2022/01/08 10:28:49;;;;;;;8.45;3.67;;;;;;;6.00;83.85;100141.41;5010589;28;20032;-64
2022/01/08 10:31:25;;;;;;;7.10;4.28;;;;;;;5.99;84.66;100139.69;5011091;28;20065;-64
2022/01/08 10:33:54;;;;;;;4.78;3.58;;;;;;;5.99;84.17;100131.75;4992452;28;20034;-64
2022/01/08 10:36:22;;;;;;;5.70;3.40;;;;;;;6.02;84.19;100134.34;4991588;28;20076;-64
2022/01/08 10:38:54;;;;;;;8.50;3.72;;;;;;;5.97;84.66;100128.25;4991098;28;20026;-64
2022/01/08 10:41:20;;;;;;;7.25;4.18;;;;;;;6.07;84.89;100120.22;4990895;28;20022;-64
2022/01/08 10:43:46;;;;;;;6.30;3.90;;;;;;;5.95;83.78;100112.44;4991971;28;20030;-64
2022/01/08 10:46:18;;;;;;;5.70;3.58;;;;;;;6.04;84.99;100116.75;4990912;28;20031;-64
2022/01/08 10:48:47;;;;;;;6.18;3.25;;;;;;;6.03;85.36;100115.00;4990939;28;20022;-64
2022/01/08 10:51:26;;;;;;;4.78;2.70;;;;;;;5.99;84.58;100110.63;4999158;28;20081;-64
2022/01/08 10:54:01;;;;;;;5.88;2.88;;;;;;;6.09;84.72;100114.91;4991429;28;20068;-64
2022/01/08 10:56:29;;;;;;;8.48;3.13;;;;;;;6.25;83.60;100116.44;4999839;28;20033;-64
2022/01/08 10:59:04;;;;;;;7.50;3.70;;;;;;;6.34;83.68;100116.34;5009930;28;20078;-64
2022/01/08 11:01:41;;;;;;;6.22;3.20;;;;;;;6.58;84.43;100105.41;4998833;28;20032;-64
2022/01/08 11:04:08;;;;;;;7.47;2.70;;;;;;;6.89;83.28;100104.00;4991039;28;20113;-64
2022/01/08 11:06:58;;;;;;;5.53;2.90;;;;;;;7.04;81.13;100106.41;4993166;28;20093;-64
2022/01/08 11:09:24;;;;;;;6.97;3.15;;;;;;;7.01;80.77;100084.44;5005436;28;20113;-64
2022/01/08 11:11:51;;;;;;;3.00;1.65;;;;;;;6.87;78.68;100084.66;5010556;28;20426;-64
2022/01/08 11:14:34;;;;;;;4.30;2.47;;;;;;;6.74;78.62;100079.63;5010357;28;20025;-64
2022/01/08 11:16:59;;;;;;;4.95;3.15;;;;;;;6.58;79.73;100073.69;4992307;28;20037;-65
2022/01/08 11:19:26;;;;;;;4.88;2.28;;;;;;;6.56;80.31;100086.94;4989991;28;20026;-65
2022/01/08 11:21:53;;;;;;;5.68;2.90;;;;;;;6.55;80.92;100071.09;4990596;28;20034;-65
2022/01/08 11:24:21;;;;;;;3.60;2.28;;;;;;;6.59;81.18;100072.78;4990342;28;20469;-65
2022/01/08 11:26:50;;;;;;;3.60;2.03;;;;;;;6.55;79.94;100064.06;5001898;28;20401;-65
2022/01/08 11:29:21;;;;;;;7.15;2.55;;;;;;;6.57;79.68;100066.66;5009835;28;20026;-65
2022/01/08 11:31:54;;;;;;;4.50;2.47;;;;;;;6.56;79.69;100062.25;5006971;28;20026;-65
2022/01/08 11:34:22;;;;;;;7.43;4.03;;;;;;;6.51;80.09;100046.50;4989948;28;20438;-65
2022/01/08 11:36:49;;;;;;;12.68;8.07;;;;;;;6.59;79.66;100056.91;4989925;28;20038;-65
2022/01/08 11:39:15;;;;;;;9.55;4.90;;;;;;;6.39;81.09;100035.25;5004370;28;20108;-65
2022/01/08 11:41:42;;;;;;;8.13;6.22;;;;;;;6.54;81.02;100040.25;5009259;28;20028;-65
2022/01/08 11:44:07;;;;;;;6.45;3.67;;;;;;;6.52;80.53;100053.50;5009522;28;20111;-65
2022/01/08 11:46:35;;;;;;;10.32;3.42;;;;;;;6.53;80.32;100039.41;4991628;28;20065;-65
2022/01/08 11:49:02;;;;;;;8.82;3.78;;;;;;;6.55;80.38;100028.81;4991731;28;20442;-65
2022/01/08 11:51:29;;;;;;;6.53;3.30;;;;;;;6.57;80.77;100019.97;5008620;28;20030;-64
2022/01/08 11:53:57;;;;;;;5.75;2.15;;;;;;;6.51;79.15;100013.91;5008429;28;20476;-64